createdAt,value
2023-02-02T00:01:34.519Z,7.70
2023-02-02T00:04:01.887Z,7.70
2023-02-02T00:06:30.535Z,7.60
2023-02-02T00:08:59.508Z,7.60
2023-02-02T00:11:26.710Z,7.70
2023-02-02T00:13:53.752Z,7.70
2023-02-02T00:16:26.545Z,7.70
2023-02-02T00:18:54.334Z,7.70
2023-02-02T00:21:21.030Z,7.70
2023-02-02T00:23:47.775Z,7.70
2023-02-02T00:26:14.505Z,7.80
2023-02-02T00:28:41.120Z,7.80
2023-02-02T00:31:07.925Z,7.80
2023-02-02T00:33:34.588Z,7.80
2023-02-02T00:36:01.226Z,7.80
2023-02-02T00:38:27.953Z,7.80
2023-02-02T00:40:54.586Z,7.80
2023-02-02T00:43:21.254Z,7.80
2023-02-02T00:45:48.969Z,7.80
2023-02-02T00:48:15.831Z,7.80
2023-02-02T00:50:42.493Z,7.80
2023-02-02T00:53:09.177Z,7.80
2023-02-02T00:55:35.860Z,7.80
2023-02-02T00:58:02.534Z,7.80
2023-02-02T01:00:29.433Z,7.90
2023-02-02T01:02:56.917Z,7.90
2023-02-02T01:05:24.027Z,7.90
2023-02-02T01:07:50.822Z,7.90
2023-02-02T01:10:18.852Z,7.90
2023-02-02T01:12:45.795Z,7.90
2023-02-02T01:15:13.019Z,7.90
2023-02-02T01:17:40.300Z,8.00
2023-02-02T01:20:08.820Z,8.00
2023-02-02T01:22:35.443Z,8.00
2023-02-02T01:25:02.150Z,8.00
2023-02-02T01:27:28.822Z,8.00
2023-02-02T01:29:55.447Z,8.00
2023-02-02T01:32:22.108Z,8.00
2023-02-02T01:34:48.738Z,8.00
2023-02-02T01:37:15.610Z,8.00
2023-02-02T01:39:42.222Z,8.00
2023-02-02T01:42:20.665Z,8.00
2023-02-02T01:45:16.330Z,8.00
2023-02-02T01:47:53.002Z,8.00
2023-02-02T01:50:23.065Z,8.00
2023-02-02T01:52:53.651Z,8.00
2023-02-02T01:55:23.851Z,8.00
2023-02-02T01:58:01.115Z,8.00
2023-02-02T02:00:28.006Z,8.00
2023-02-02T02:03:02.039Z,8.00
2023-02-02T02:05:44.554Z,8.00
2023-02-02T02:08:37.774Z,7.90
2023-02-02T02:11:04.635Z,8.00
2023-02-02T02:13:52.965Z,8.00
2023-02-02T02:16:53.911Z,8.00
2023-02-02T02:20:10.623Z,8.00
2023-02-02T02:23:06.586Z,8.00
2023-02-02T02:26:28.844Z,8.00
2023-02-02T02:29:17.615Z,8.00
2023-02-02T02:32:08.219Z,8.00
2023-02-02T02:34:53.780Z,8.00
2023-02-02T02:37:51.510Z,8.00
2023-02-02T02:40:30.919Z,8.00
2023-02-02T02:43:06.492Z,8.00
2023-02-02T02:45:34.570Z,8.00
2023-02-02T02:48:03.152Z,8.00
2023-02-02T02:50:29.831Z,8.00
2023-02-02T02:53:08.027Z,8.00
2023-02-02T02:56:03.864Z,8.00
2023-02-02T02:58:44.427Z,8.00
2023-02-02T03:01:28.516Z,8.00
2023-02-02T03:04:07.097Z,8.00
2023-02-02T03:06:46.620Z,8.10
2023-02-02T03:09:18.439Z,8.10
2023-02-02T03:11:46.363Z,8.00
2023-02-02T03:14:13.092Z,8.00
2023-02-02T03:16:39.983Z,8.00
2023-02-02T03:19:08.143Z,8.10
2023-02-02T03:21:35.301Z,8.10
2023-02-02T03:24:02.056Z,8.10
2023-02-02T03:26:29.113Z,8.10
2023-02-02T03:28:59.425Z,8.10
2023-02-02T03:31:29.731Z,8.20
2023-02-02T03:33:56.916Z,8.20
2023-02-02T03:36:23.802Z,8.20
2023-02-02T03:38:50.416Z,8.20
2023-02-02T03:41:17.151Z,8.20
2023-02-02T03:43:43.783Z,8.20
2023-02-02T03:46:10.434Z,8.20
2023-02-02T03:48:38.845Z,8.20
2023-02-02T03:51:07.426Z,8.30
2023-02-02T03:53:34.055Z,8.30
2023-02-02T03:56:00.766Z,8.30
2023-02-02T03:58:27.414Z,8.30
2023-02-02T04:00:55.562Z,8.20
2023-02-02T04:03:22.171Z,8.30
2023-02-02T04:05:51.543Z,8.30
2023-02-02T04:08:18.259Z,8.20
2023-02-02T04:10:44.853Z,8.30
2023-02-02T04:13:11.496Z,8.30
2023-02-02T04:15:38.121Z,8.30
2023-02-02T04:18:04.788Z,8.40
2023-02-02T04:20:31.395Z,8.30
2023-02-02T04:22:58.023Z,8.40
2023-02-02T04:25:24.960Z,8.30
2023-02-02T04:27:51.870Z,8.30
2023-02-02T04:30:20.021Z,8.30
2023-02-02T04:32:46.970Z,8.30
2023-02-02T04:35:13.665Z,8.30
2023-02-02T04:37:40.271Z,8.30
2023-02-02T04:40:07.681Z,8.30
2023-02-02T04:42:35.031Z,8.40
2023-02-02T04:45:01.821Z,8.40
2023-02-02T04:47:28.535Z,8.40
2023-02-02T04:49:55.174Z,8.30
2023-02-02T04:52:21.952Z,8.40
2023-02-02T04:54:48.574Z,8.40
2023-02-02T04:57:15.233Z,8.40
2023-02-02T04:59:42.567Z,8.30
2023-02-02T05:02:09.331Z,8.30
2023-02-02T05:04:35.983Z,8.40
2023-02-02T05:07:02.638Z,8.30
2023-02-02T05:09:29.280Z,8.40
2023-02-02T05:11:55.893Z,8.40
2023-02-02T05:14:22.607Z,8.40
2023-02-02T05:16:49.993Z,8.40
2023-02-02T05:19:16.866Z,8.40
2023-02-02T05:21:44.791Z,8.30
2023-02-02T05:24:12.523Z,8.40
2023-02-02T05:26:39.251Z,8.30
2023-02-02T05:29:06.761Z,8.30
2023-02-02T05:31:33.586Z,8.40
2023-02-02T05:34:00.466Z,8.40
2023-02-02T05:36:27.462Z,8.40
2023-02-02T05:38:54.113Z,8.40
2023-02-02T05:41:20.777Z,8.40
2023-02-02T05:43:47.417Z,8.40
2023-02-02T05:46:14.287Z,8.40
2023-02-02T05:48:40.983Z,8.40
2023-02-02T05:51:21.783Z,8.40
2023-02-02T05:53:48.462Z,8.30
2023-02-02T05:56:16.168Z,8.30
2023-02-02T05:58:44.460Z,8.30
2023-02-02T06:01:11.150Z,8.20
2023-02-02T06:03:37.909Z,8.20
2023-02-02T06:06:06.952Z,8.20
2023-02-02T06:08:34.280Z,8.20
2023-02-02T06:11:08.106Z,8.20
2023-02-02T06:13:35.472Z,8.20
2023-02-02T06:16:02.329Z,8.20
2023-02-02T06:18:29.012Z,8.20
2023-02-02T06:20:59.274Z,8.20
2023-02-02T06:23:26.399Z,8.20
2023-02-02T06:25:53.090Z,8.20
2023-02-02T06:28:19.925Z,8.10
2023-02-02T06:30:46.823Z,8.20
2023-02-02T06:33:13.510Z,8.10
2023-02-02T06:35:40.132Z,8.10
2023-02-02T06:38:06.749Z,8.10
2023-02-02T06:40:33.392Z,8.10
2023-02-02T06:43:03.156Z,8.10
2023-02-02T06:45:30.979Z,8.10
2023-02-02T06:48:03.529Z,8.10
2023-02-02T06:50:30.572Z,8.00
2023-02-02T06:52:57.179Z,8.00
2023-02-02T06:55:24.810Z,8.00
2023-02-02T06:57:57.526Z,8.00
2023-02-02T07:00:24.751Z,8.00
2023-02-02T07:02:51.563Z,8.00
2023-02-02T07:05:24.049Z,8.00
2023-02-02T07:07:51.519Z,8.00
2023-02-02T07:11:14.673Z,8.00
2023-02-02T07:13:06.980Z,8.00
2023-02-02T07:15:34.451Z,8.00
2023-02-02T07:18:01.367Z,8.00
2023-02-02T07:20:28.085Z,8.00
2023-02-02T07:22:54.696Z,8.00
2023-02-02T07:25:21.328Z,8.00
2023-02-02T07:27:48.321Z,8.00
2023-02-02T07:30:16.046Z,8.00
2023-02-02T07:32:50.127Z,8.00
2023-02-02T07:35:17.597Z,8.00
2023-02-02T07:37:44.298Z,8.00
2023-02-02T07:40:11.834Z,8.00
2023-02-02T07:42:38.515Z,8.10
2023-02-02T07:45:24.696Z,8.10
2023-02-02T07:47:59.973Z,8.10
2023-02-02T07:50:27.746Z,8.10
2023-02-02T07:52:54.554Z,8.20
2023-02-02T07:55:21.477Z,8.20
2023-02-02T07:57:48.141Z,8.30
2023-02-02T08:00:15.064Z,8.30
2023-02-02T08:02:41.713Z,8.30
2023-02-02T08:05:08.744Z,8.30
2023-02-02T08:07:35.419Z,8.30
2023-02-02T08:10:02.378Z,8.30
2023-02-02T08:12:29.090Z,8.40
2023-02-02T08:14:55.734Z,8.40
2023-02-02T08:17:23.507Z,8.50
2023-02-02T08:19:50.628Z,8.50
2023-02-02T08:22:18.843Z,8.50
2023-02-02T08:24:46.873Z,8.50
2023-02-02T08:27:16.030Z,8.60
2023-02-02T08:29:43.053Z,8.60
2023-02-02T08:32:09.721Z,8.60
2023-02-02T08:34:36.985Z,8.60
2023-02-02T08:37:04.261Z,8.60
2023-02-02T08:39:30.924Z,8.60
2023-02-02T08:41:57.832Z,8.60
2023-02-02T08:44:26.424Z,8.60
2023-02-02T08:46:55.077Z,8.70
2023-02-02T08:49:21.843Z,8.70
2023-02-02T08:51:48.515Z,8.70
2023-02-02T08:54:15.148Z,8.70
2023-02-02T08:56:41.790Z,8.70
2023-02-02T08:59:08.669Z,8.80
2023-02-02T09:01:35.955Z,8.80
2023-02-02T09:04:05.594Z,8.80
2023-02-02T09:06:40.393Z,8.80
2023-02-02T09:09:09.963Z,8.80
2023-02-02T09:11:36.992Z,8.70
2023-02-02T09:14:06.213Z,8.70
2023-02-02T09:16:34.764Z,8.70
2023-02-02T09:19:01.673Z,8.80
2023-02-02T09:21:28.425Z,8.80
2023-02-02T09:23:55.390Z,8.80
2023-02-02T09:26:29.069Z,8.80
2023-02-02T09:28:59.321Z,8.90
2023-02-02T09:31:26.985Z,8.80
2023-02-02T09:33:54.028Z,8.80
2023-02-02T09:36:23.080Z,8.90
2023-02-02T09:38:52.663Z,8.90
2023-02-02T09:41:43.235Z,8.90
2023-02-02T09:44:49.059Z,8.90
2023-02-02T09:47:37.006Z,8.90
2023-02-02T09:50:22.600Z,8.90
2023-02-02T09:52:53.076Z,8.90
2023-02-02T09:55:23.344Z,8.90
2023-02-02T09:57:55.501Z,8.90
2023-02-02T10:00:33.728Z,9.00
2023-02-02T10:03:12.280Z,9.00
2023-02-02T10:06:02.594Z,9.00
2023-02-02T10:08:42.043Z,9.10
2023-02-02T10:11:35.629Z,9.10
2023-02-02T10:14:34.651Z,9.10
2023-02-02T10:17:25.187Z,9.10
2023-02-02T10:19:57.105Z,9.10
2023-02-02T10:22:29.363Z,9.20
2023-02-02T10:24:58.599Z,9.20
2023-02-02T10:27:39.284Z,9.20
2023-02-02T10:30:34.993Z,9.20
2023-02-02T10:33:13.628Z,9.20
2023-02-02T10:36:02.023Z,9.20
2023-02-02T10:38:28.595Z,9.20
2023-02-02T10:41:41.316Z,9.30
2023-02-02T10:44:22.235Z,9.30
2023-02-02T10:46:53.348Z,9.30
2023-02-02T10:49:27.147Z,9.30
2023-02-02T10:52:11.812Z,9.30
2023-02-02T10:55:00.897Z,9.30
2023-02-02T10:57:47.731Z,9.40
2023-02-02T11:00:51.473Z,9.40
2023-02-02T11:03:20.895Z,9.40
2023-02-02T11:06:05.901Z,9.40
2023-02-02T11:08:39.801Z,9.40
2023-02-02T11:11:12.629Z,9.40
2023-02-02T11:14:22.584Z,9.40
2023-02-02T11:17:04.913Z,9.40
2023-02-02T11:19:33.793Z,9.50
2023-02-02T11:22:04.445Z,9.50
2023-02-02T11:24:46.235Z,9.50
2023-02-02T11:27:18.731Z,9.50
2023-02-02T11:29:51.857Z,9.50
2023-02-02T11:32:32.842Z,9.60
2023-02-02T11:35:08.617Z,9.60
2023-02-02T11:37:51.354Z,9.50
2023-02-02T11:40:39.806Z,9.60
2023-02-02T11:43:40.974Z,9.60
2023-02-02T11:46:24.839Z,9.60
2023-02-02T11:49:01.865Z,9.60
2023-02-02T11:51:30.448Z,9.50
2023-02-02T11:54:05.934Z,9.60
2023-02-02T11:56:34.630Z,9.60
2023-02-02T11:59:03.813Z,9.70
2023-02-02T12:01:39.778Z,9.70
2023-02-02T12:04:25.460Z,9.80
2023-02-02T12:06:52.157Z,9.90
2023-02-02T12:09:24.082Z,9.90
2023-02-02T12:12:05.670Z,10.00
2023-02-02T12:14:59.573Z,10.10
2023-02-02T12:17:42.900Z,10.20
2023-02-02T12:20:36.622Z,10.20
2023-02-02T12:23:26.157Z,10.20
2023-02-02T12:26:09.749Z,10.20
2023-02-02T12:28:55.523Z,10.40
2023-02-02T12:31:37.712Z,10.60
2023-02-02T12:34:12.960Z,10.80
2023-02-02T12:36:56.938Z,11.40
2023-02-02T12:39:37.800Z,11.70
2023-02-02T12:42:07.533Z,11.80
2023-02-02T12:44:43.362Z,11.80
2023-02-02T12:47:19.202Z,11.80
2023-02-02T12:50:08.838Z,11.90
2023-02-02T12:52:38.190Z,11.90
2023-02-02T12:55:17.923Z,11.80
2023-02-02T12:57:57.179Z,11.70
2023-02-02T13:00:42.777Z,11.70
2023-02-02T13:03:26.886Z,11.70
2023-02-02T13:05:59.082Z,11.70
2023-02-02T13:08:36.275Z,11.60
2023-02-02T13:11:29.992Z,11.60
2023-02-02T13:14:23.074Z,11.50
2023-02-02T13:16:54.277Z,11.50
2023-02-02T13:19:30.952Z,11.50
2023-02-02T13:21:59.925Z,11.40
2023-02-02T13:24:33.439Z,11.40
2023-02-02T13:27:04.017Z,11.30
2023-02-02T13:29:56.306Z,11.30
2023-02-02T13:32:33.315Z,11.30
2023-02-02T13:35:13.532Z,11.30
2023-02-02T13:38:04.279Z,11.20
2023-02-02T13:40:39.141Z,11.10
2023-02-02T13:43:12.952Z,11.10
2023-02-02T13:45:49.221Z,11.00
2023-02-02T13:48:49.853Z,11.00
2023-02-02T13:51:40.861Z,11.00
2023-02-02T13:54:34.141Z,10.90
2023-02-02T13:57:19.562Z,10.90
2023-02-02T14:00:07.716Z,10.90
2023-02-02T14:02:48.873Z,10.90
2023-02-02T14:05:40.081Z,10.80
2023-02-02T14:08:21.902Z,10.90
2023-02-02T14:10:54.648Z,10.90
2023-02-02T14:13:44.227Z,10.90
2023-02-02T14:16:43.051Z,10.90
2023-02-02T14:19:18.501Z,11.00
2023-02-02T14:21:47.972Z,11.10
2023-02-02T14:24:27.116Z,11.20
2023-02-02T14:27:01.657Z,11.20
2023-02-02T14:29:31.593Z,11.20
2023-02-02T14:32:07.229Z,11.20
2023-02-02T14:34:34.951Z,11.10
2023-02-02T14:37:21.147Z,11.10
2023-02-02T14:40:08.813Z,11.20
2023-02-02T14:43:15.700Z,11.10
2023-02-02T14:45:43.962Z,11.10
2023-02-02T14:48:26.742Z,11.00
2023-02-02T14:51:05.710Z,11.00
2023-02-02T14:53:35.174Z,10.90
2023-02-02T14:56:08.849Z,10.90
2023-02-02T14:58:48.039Z,10.80
2023-02-02T15:01:17.724Z,10.80
2023-02-02T15:03:49.260Z,10.80
2023-02-02T15:06:35.916Z,10.70
2023-02-02T15:09:20.685Z,10.70
2023-02-02T15:12:01.296Z,10.60
2023-02-02T15:14:33.139Z,10.60
2023-02-02T15:17:28.471Z,10.50
2023-02-02T15:20:13.682Z,10.50
2023-02-02T15:23:05.200Z,10.50
2023-02-02T15:26:04.097Z,10.50
2023-02-02T15:28:50.724Z,10.50
2023-02-02T15:31:32.265Z,10.40
2023-02-02T15:34:09.580Z,10.40
2023-02-02T15:36:41.157Z,10.40
2023-02-02T15:39:35.611Z,10.40
2023-02-02T15:42:25.056Z,10.40
2023-02-02T15:44:51.679Z,10.30
2023-02-02T15:47:29.852Z,10.20
2023-02-02T15:49:56.675Z,10.10
2023-02-02T15:52:35.405Z,10.10
2023-02-02T15:55:02.168Z,10.20
2023-02-02T15:57:35.077Z,10.10
2023-02-02T16:00:29.615Z,10.10
2023-02-02T16:03:02.592Z,10.20
2023-02-02T16:05:32.077Z,10.20
2023-02-02T16:08:06.068Z,10.10
2023-02-02T16:10:33.810Z,10.10
2023-02-02T16:13:00.443Z,10.10
2023-02-02T16:15:29.470Z,10.10
2023-02-02T16:18:04.436Z,10.10
2023-02-02T16:20:34.217Z,10.00
2023-02-02T16:23:04.816Z,10.00
2023-02-02T16:25:35.148Z,10.00
2023-02-02T16:28:03.171Z,9.90
2023-02-02T16:30:36.701Z,9.90
2023-02-02T16:33:28.386Z,9.80
2023-02-02T16:35:55.961Z,9.80
2023-02-02T16:38:35.000Z,9.70
2023-02-02T16:41:03.562Z,9.70
2023-02-02T16:43:30.576Z,9.70
2023-02-02T16:46:07.349Z,9.60
2023-02-02T16:48:38.445Z,9.60
2023-02-02T16:51:17.182Z,9.50
2023-02-02T16:53:52.284Z,9.60
2023-02-02T16:56:34.765Z,9.50
2023-02-02T16:59:13.788Z,9.50
2023-02-02T17:01:49.715Z,9.50
2023-02-02T17:04:21.433Z,9.60
2023-02-02T17:06:52.799Z,9.60
2023-02-02T17:09:27.673Z,9.60
2023-02-02T17:12:35.358Z,9.60
2023-02-02T17:15:31.624Z,9.60
2023-02-02T17:18:00.877Z,9.60
2023-02-02T17:20:28.370Z,9.60
2023-02-02T17:22:59.963Z,9.60
2023-02-02T17:25:34.627Z,9.60
2023-02-02T17:28:02.795Z,9.60
2023-02-02T17:30:30.468Z,9.60
2023-02-02T17:32:57.508Z,9.60
2023-02-02T17:35:27.384Z,9.50
2023-02-02T17:37:54.951Z,9.50
2023-02-02T17:40:23.828Z,9.50
2023-02-02T17:42:52.809Z,9.50
2023-02-02T17:45:23.259Z,9.50
2023-02-02T17:47:51.022Z,9.40
2023-02-02T17:50:18.359Z,9.50
2023-02-02T17:52:45.992Z,9.50
2023-02-02T17:55:24.862Z,9.40
2023-02-02T17:57:53.232Z,9.40
2023-02-02T18:00:23.332Z,9.40
2023-02-02T18:02:54.678Z,9.30
2023-02-02T18:05:23.391Z,9.30
2023-02-02T18:07:50.356Z,9.30
2023-02-02T18:10:19.165Z,9.40
2023-02-02T18:12:45.810Z,9.40
2023-02-02T18:15:14.667Z,9.40
2023-02-02T18:17:42.725Z,9.30
2023-02-02T18:20:13.122Z,9.30
2023-02-02T18:22:39.781Z,9.30
2023-02-02T18:25:06.801Z,9.30
2023-02-02T18:27:33.474Z,9.20
2023-02-02T18:30:00.119Z,9.20
2023-02-02T18:32:26.808Z,9.20
2023-02-02T18:34:55.787Z,9.20
2023-02-02T18:37:24.100Z,9.20
2023-02-02T18:39:52.535Z,9.20
2023-02-02T18:42:19.320Z,9.20
2023-02-02T18:44:45.944Z,9.20
2023-02-02T18:47:12.564Z,9.20
2023-02-02T18:49:39.221Z,9.20
2023-02-02T18:52:05.908Z,9.20
2023-02-02T18:54:33.900Z,9.20
2023-02-02T18:57:00.597Z,9.20
2023-02-02T18:59:28.460Z,9.20
2023-02-02T19:01:55.464Z,9.20
2023-02-02T19:04:22.152Z,9.20
2023-02-02T19:07:07.418Z,9.20
2023-02-02T19:09:34.715Z,9.10
2023-02-02T19:12:02.206Z,9.10
2023-02-02T19:14:33.207Z,9.20
2023-02-02T19:17:12.103Z,9.10
2023-02-02T19:19:40.524Z,9.10
2023-02-02T19:22:21.666Z,9.10
2023-02-02T19:24:49.177Z,9.00
2023-02-02T19:27:24.537Z,9.00
2023-02-02T19:29:54.067Z,8.90
2023-02-02T19:32:24.960Z,8.90
2023-02-02T19:34:58.500Z,8.80
2023-02-02T19:37:30.387Z,8.80
2023-02-02T19:40:09.305Z,8.80
2023-02-02T19:42:44.864Z,8.80
2023-02-02T19:45:28.667Z,8.70
2023-02-02T19:47:57.627Z,8.70
2023-02-02T19:50:32.383Z,8.60
2023-02-02T19:52:59.174Z,8.60
2023-02-02T19:55:35.004Z,8.60
2023-02-02T19:58:13.736Z,8.60
2023-02-02T20:00:41.089Z,8.60
2023-02-02T20:03:27.316Z,8.60
2023-02-02T20:05:56.613Z,8.60
2023-02-02T20:08:41.217Z,8.60
2023-02-02T20:11:23.617Z,8.50
2023-02-02T20:13:51.359Z,8.50
2023-02-02T20:16:23.616Z,8.50
2023-02-02T20:18:55.275Z,8.50
2023-02-02T20:21:41.255Z,8.50
2023-02-02T20:24:18.103Z,8.40
2023-02-02T20:26:45.296Z,8.40
2023-02-02T20:29:24.016Z,8.40
2023-02-02T20:31:54.394Z,8.40
2023-02-02T20:34:30.911Z,8.40
2023-02-02T20:37:31.617Z,8.30
2023-02-02T20:40:23.000Z,8.30
2023-02-02T20:42:49.902Z,8.30
2023-02-02T20:45:17.648Z,8.30
2023-02-02T20:47:45.401Z,8.30
2023-02-02T20:50:14.565Z,8.40
2023-02-02T20:52:41.920Z,8.40
2023-02-02T20:55:09.529Z,8.30
2023-02-02T20:57:38.340Z,8.70
2023-02-02T21:00:07.394Z,8.40
2023-02-02T21:02:34.244Z,8.40
2023-02-02T21:05:01.378Z,8.40
2023-02-02T21:07:28.083Z,8.40
2023-02-02T21:09:54.966Z,8.30
2023-02-02T21:12:25.306Z,8.40
2023-02-02T21:14:56.005Z,8.40
2023-02-02T21:17:23.121Z,8.40
2023-02-02T21:19:50.147Z,8.40
2023-02-02T21:22:16.802Z,8.40
2023-02-02T21:24:43.456Z,8.40
2023-02-02T21:27:10.266Z,8.40
2023-02-02T21:29:37.285Z,8.40
2023-02-02T21:32:04.728Z,8.40
2023-02-02T21:34:32.074Z,8.50
2023-02-02T21:36:59.412Z,8.50
2023-02-02T21:39:37.069Z,8.50
2023-02-02T21:42:14.923Z,8.50
2023-02-02T21:44:44.341Z,8.50
2023-02-02T21:47:33.729Z,8.50
2023-02-02T21:50:15.156Z,8.60
2023-02-02T21:52:42.092Z,8.50
2023-02-02T21:55:34.263Z,8.50
2023-02-02T21:58:17.689Z,8.50
2023-02-02T22:00:44.344Z,8.40
2023-02-02T22:03:32.947Z,8.40
2023-02-02T22:06:22.608Z,8.40
2023-02-02T22:08:49.673Z,8.30
2023-02-02T22:11:23.840Z,8.30
2023-02-02T22:13:50.747Z,8.30
2023-02-02T22:16:20.769Z,8.40
2023-02-02T22:18:47.786Z,8.30
2023-02-02T22:21:17.998Z,8.40
2023-02-02T22:23:46.212Z,8.40
2023-02-02T22:26:40.095Z,8.40
2023-02-02T22:29:14.752Z,8.30
2023-02-02T22:31:41.503Z,8.30
2023-02-02T22:34:08.275Z,8.30
2023-02-02T22:36:34.911Z,8.30
2023-02-02T22:39:01.550Z,8.30
2023-02-02T22:41:28.253Z,8.30
2023-02-02T22:43:54.952Z,8.20
2023-02-02T22:46:21.661Z,8.20
2023-02-02T22:48:48.309Z,8.20
2023-02-02T22:51:14.977Z,8.20
2023-02-02T22:53:41.609Z,8.20
2023-02-02T22:56:08.253Z,8.30
2023-02-02T22:58:34.899Z,8.30
2023-02-02T23:01:01.641Z,8.30
2023-02-02T23:03:28.344Z,8.30
2023-02-02T23:05:54.995Z,8.30
2023-02-02T23:08:21.664Z,8.30
2023-02-02T23:10:48.344Z,8.20
2023-02-02T23:13:15.023Z,8.20
2023-02-02T23:15:41.757Z,8.20
2023-02-02T23:18:08.466Z,8.20
2023-02-02T23:20:35.104Z,8.20
2023-02-02T23:23:01.799Z,8.20
2023-02-02T23:25:28.479Z,8.20
2023-02-02T23:27:55.321Z,8.20
2023-02-02T23:30:24.362Z,8.20
2023-02-02T23:32:51.395Z,8.20
2023-02-02T23:35:18.107Z,8.10
2023-02-02T23:37:44.816Z,8.10
2023-02-02T23:40:12.072Z,8.10
2023-02-02T23:42:38.733Z,8.00
2023-02-02T23:45:06.117Z,8.00
2023-02-02T23:47:34.400Z,8.00
2023-02-02T23:50:04.246Z,8.00
2023-02-02T23:52:32.128Z,8.10
2023-02-02T23:55:00.437Z,8.20
2023-02-02T23:57:27.283Z,8.20
2023-02-02T23:59:53.958Z,8.20
